Time;durP1;ratioP1;P1;durP2;ratioP2;P2;SDS_P1;SDS_P2;PMS_P1;PMS_P2;Temp;Humidity;BMP_temperature;BMP_pressure;BME280_temperature;BME280_humidity;BME280_pressure;Samples;Min_cycle;Max_cycle;Signal;HPM_P1;HPM_P2
2021/07/10 00:01:47;;;;;;;13.53;12.13;;;16.60;99.90;;;;;;4997198;28;20468;-77
2021/07/10 00:04:16;;;;;;;11.70;10.50;;;16.60;99.90;;;;;;4996797;28;20802;-77
2021/07/10 00:06:44;;;;;;;11.23;10.13;;;16.60;99.90;;;;;;4996172;28;20477;-78
2021/07/10 00:09:12;;;;;;;11.13;9.93;;;16.60;99.90;;;;;;4996388;28;20420;-77
2021/07/10 00:11:41;;;;;;;11.70;10.53;;;16.50;99.90;;;;;;4994705;28;20495;-77
2021/07/10 00:14:09;;;;;;;11.97;10.67;;;16.50;99.90;;;;;;4995712;28;20436;-77
2021/07/10 00:16:37;;;;;;;12.60;11.30;;;16.50;99.90;;;;;;4992167;28;20480;-77
2021/07/10 00:19:05;;;;;;;12.90;11.60;;;16.50;99.90;;;;;;4995881;28;20494;-77
2021/07/10 00:21:35;;;;;;;13.47;11.87;;;16.40;99.90;;;;;;4990546;28;20570;-77
2021/07/10 00:24:03;;;;;;;12.00;10.70;;;16.40;99.90;;;;;;4976205;28;20471;-77
2021/07/10 00:26:32;;;;;;;12.83;11.60;;;16.40;99.90;;;;;;4975048;28;20459;-77
2021/07/10 00:29:00;;;;;;;12.77;11.43;;;16.40;99.90;;;;;;4976350;28;20458;-77
2021/07/10 00:31:28;;;;;;;14.90;12.00;;;16.40;99.90;;;;;;4975843;28;20468;-77
2021/07/10 00:33:56;;;;;;;12.60;11.40;;;16.30;99.90;;;;;;4994383;28;20431;-77
2021/07/10 00:36:24;;;;;;;11.67;10.10;;;16.40;99.90;;;;;;4994506;28;20204;-76
2021/07/10 00:38:56;;;;;;;11.50;10.37;;;16.40;99.90;;;;;;4996087;28;20511;-77
2021/07/10 00:41:24;;;;;;;12.90;11.60;;;16.40;99.90;;;;;;4995034;28;20479;-77
2021/07/10 00:43:53;;;;;;;11.97;10.70;;;16.30;99.90;;;;;;4995646;28;20447;-77
2021/07/10 00:46:22;;;;;;;13.23;11.80;;;16.30;99.90;;;;;;4995019;28;20492;-77
2021/07/10 00:48:50;;;;;;;11.27;10.10;;;16.30;99.90;;;;;;4993790;28;20478;-77
2021/07/10 00:51:20;;;;;;;11.90;10.70;;;16.20;99.90;;;;;;4993762;28;20537;-77
2021/07/10 00:53:49;;;;;;;11.57;10.43;;;16.20;99.90;;;;;;4993962;28;20423;-76
2021/07/10 00:56:19;;;;;;;10.50;9.57;;;16.20;99.90;;;;;;4995059;28;21043;-77
2021/07/10 00:58:49;;;;;;;11.00;9.90;;;16.20;99.90;;;;;;4994832;28;20480;-77
2021/07/10 01:01:18;;;;;;;11.93;10.70;;;16.10;99.90;;;;;;4995049;28;20566;-77
2021/07/10 01:03:47;;;;;;;11.10;10.00;;;16.20;99.90;;;;;;4994804;28;20455;-76
2021/07/10 01:06:15;;;;;;;11.93;10.80;;;16.10;99.90;;;;;;4994440;28;21047;-76
2021/07/10 01:08:45;;;;;;;13.53;12.27;;;16.10;99.90;;;;;;4994638;28;20470;-77
2021/07/10 01:11:14;;;;;;;11.87;10.67;;;16.10;99.90;;;;;;4994666;28;20463;-76
2021/07/10 01:13:43;;;;;;;11.90;10.73;;;16.10;99.90;;;;;;4994658;28;20967;-76
2021/07/10 01:16:11;;;;;;;11.83;10.63;;;16.10;99.90;;;;;;4994728;28;20449;-76
2021/07/10 01:18:39;;;;;;;10.80;9.70;;;16.10;99.90;;;;;;4993342;28;20422;-77
2021/07/10 01:21:09;;;;;;;11.63;9.70;;;16.10;99.90;;;;;;4993211;28;20486;-77
2021/07/10 01:23:37;;;;;;;11.60;10.40;;;16.00;99.90;;;;;;4993065;28;20991;-76
2021/07/10 01:26:05;;;;;;;11.60;10.37;;;16.00;99.90;;;;;;4993078;28;20441;-76
2021/07/10 01:28:33;;;;;;;10.87;9.87;;;16.00;99.90;;;;;;4992892;28;20548;-76
2021/07/10 01:31:02;;;;;;;12.20;9.90;;;16.00;99.90;;;;;;4994329;28;20984;-75
2021/07/10 01:33:30;;;;;;;10.60;9.60;;;16.00;99.90;;;;;;4995053;28;20418;-76
2021/07/10 01:35:59;;;;;;;10.87;9.80;;;16.00;99.90;;;;;;4993308;28;20466;-77
2021/07/10 01:38:28;;;;;;;11.60;10.40;;;16.00;99.90;;;;;;4992919;28;20607;-77
2021/07/10 01:40:56;;;;;;;11.27;10.17;;;16.00;99.90;;;;;;4994071;28;20560;-76
2021/07/10 01:43:25;;;;;;;11.47;10.43;;;16.00;99.90;;;;;;4994057;28;20452;-77
2021/07/10 01:45:54;;;;;;;13.77;11.20;;;16.00;99.90;;;;;;4997810;28;20502;-77
2021/07/10 01:48:23;;;;;;;11.83;10.40;;;16.00;99.90;;;;;;4993851;28;20472;-77
2021/07/10 01:50:51;;;;;;;12.20;10.73;;;15.90;99.90;;;;;;4991817;28;21010;-77
2021/07/10 01:53:19;;;;;;;12.37;10.13;;;15.90;99.90;;;;;;4992963;28;20885;-75
2021/07/10 01:55:49;;;;;;;11.60;10.40;;;15.90;99.90;;;;;;4992710;28;20488;-76
2021/07/10 01:58:17;;;;;;;10.77;9.77;;;15.90;99.90;;;;;;4993342;28;20447;-77
2021/07/10 02:14:13;;;;;;;12.77;11.27;;;15.80;99.90;;;;;;4994641;28;20433;-75
2021/07/10 02:18:01;;;;;;;13.33;12.03;;;15.80;99.90;;;;;;4994604;28;21064;-75
2021/07/10 02:24:24;;;;;;;12.90;11.03;;;15.70;99.90;;;;;;5003840;28;20458;-77
2021/07/10 02:27:28;;;;;;;12.80;11.50;;;15.70;99.90;;;;;;4994940;28;20452;-77
2021/07/10 02:36:33;;;;;;;12.10;10.80;;;15.60;99.90;;;;;;4993648;28;20468;-77
2021/07/10 02:39:01;;;;;;;11.33;10.23;;;15.60;99.90;;;;;;4995123;28;20535;-77
2021/07/10 02:44:27;;;;;;;11.17;10.07;;;15.60;99.90;;;;;;4992319;28;20441;-78
2021/07/10 02:50:12;;;;;;;13.03;11.73;;;15.60;99.90;;;;;;4997528;28;20467;-76
2021/07/10 02:59:07;;;;;;;15.15;13.65;;;15.50;99.90;;;;;;4993233;28;20480;-77
2021/07/10 03:01:35;;;;;;;17.83;14.83;;;15.50;99.90;;;;;;4997252;28;20783;-77
2021/07/10 03:04:04;;;;;;;14.27;12.77;;;15.50;99.90;;;;;;4998085;28;20507;-77
2021/07/10 03:06:32;;;;;;;14.10;12.70;;;15.50;99.90;;;;;;4996994;28;21008;-77
2021/07/10 03:12:59;;;;;;;15.80;13.23;;;15.40;99.90;;;;;;4997010;28;20446;-77
2021/07/10 03:42:37;;;;;;;18.70;15.60;;;15.00;99.90;;;;;;4898206;29;20428;-74
2021/07/10 03:45:06;;;;;;;17.73;15.53;;;15.00;99.90;;;;;;4941608;28;20502;-74
2021/07/10 03:47:35;;;;;;;18.67;15.90;;;15.00;99.90;;;;;;4978479;28;20429;-74
2021/07/10 03:50:05;;;;;;;16.10;14.00;;;14.90;99.90;;;;;;4993849;28;20451;-74
2021/07/10 03:52:33;;;;;;;18.17;16.03;;;14.90;99.90;;;;;;4995889;28;20790;-74
2021/07/10 03:55:03;;;;;;;17.87;15.97;;;14.90;99.90;;;;;;4978456;28;20481;-74
2021/07/10 03:57:31;;;;;;;19.67;16.40;;;14.90;99.90;;;;;;4977695;28;20961;-74
2021/07/10 04:00:00;;;;;;;19.10;15.67;;;14.90;99.90;;;;;;4994649;28;20439;-74
2021/07/10 04:02:28;;;;;;;18.30;16.37;;;14.90;99.90;;;;;;4978494;28;20473;-74
2021/07/10 04:04:57;;;;;;;21.20;17.57;;;14.90;99.90;;;;;;4978221;28;20539;-74
2021/07/10 04:07:25;;;;;;;18.00;15.87;;;14.90;99.90;;;;;;4978393;28;20533;-74
2021/07/10 04:09:53;;;;;;;17.80;15.90;;;14.90;99.90;;;;;;4995728;28;20570;-74
2021/07/10 04:12:21;;;;;;;19.50;16.87;;;14.90;99.90;;;;;;4978055;28;20432;-74
2021/07/10 04:14:49;;;;;;;20.20;17.00;;;14.90;99.90;;;;;;4978496;28;20437;-74
2021/07/10 04:17:19;;;;;;;22.53;18.57;;;14.90;99.90;;;;;;4995729;28;20419;-74
2021/07/10 04:19:47;;;;;;;23.47;18.20;;;14.90;99.90;;;;;;4974165;28;20506;-74
2021/07/10 04:22:15;;;;;;;18.23;15.83;;;14.90;99.90;;;;;;4959484;28;20435;-74
2021/07/10 04:24:43;;;;;;;21.00;17.03;;;14.90;99.90;;;;;;4958605;28;20508;-74
2021/07/10 04:27:11;;;;;;;21.97;18.97;;;14.90;99.90;;;;;;4976081;28;20447;-74
2021/07/10 04:29:39;;;;;;;20.03;17.10;;;14.80;99.90;;;;;;4976444;28;20477;-74
2021/07/10 04:32:08;;;;;;;25.40;18.90;;;14.80;99.90;;;;;;4975965;28;20414;-74
2021/07/10 04:34:40;;;;;;;21.93;17.80;;;14.90;99.90;;;;;;4973302;28;20847;-74
2021/07/10 04:37:08;;;;;;;23.77;19.73;;;14.90;99.90;;;;;;4995337;28;20823;-74
2021/07/10 04:39:36;;;;;;;23.13;19.23;;;14.80;99.90;;;;;;4977457;28;20489;-74
2021/07/10 04:42:06;;;;;;;21.33;18.20;;;14.90;99.90;;;;;;4977830;28;20505;-74
2021/07/10 04:44:34;;;;;;;20.43;17.87;;;14.90;99.90;;;;;;4994878;28;20823;-74
2021/07/10 04:47:03;;;;;;;21.53;18.60;;;14.80;99.90;;;;;;4975544;28;20451;-74
2021/07/10 04:49:32;;;;;;;23.80;21.33;;;14.90;99.90;;;;;;4977244;28;20466;-74
2021/07/10 04:52:02;;;;;;;26.90;20.40;;;14.90;99.90;;;;;;4994951;28;20537;-74
2021/07/10 04:54:30;;;;;;;21.70;19.20;;;14.90;99.90;;;;;;4994893;28;21049;-74
2021/07/10 04:56:58;;;;;;;25.13;19.33;;;14.90;99.90;;;;;;4994939;28;20412;-74
2021/07/10 04:59:26;;;;;;;23.03;20.30;;;15.00;99.90;;;;;;4994762;28;20424;-74
2021/07/10 05:01:54;;;;;;;23.80;19.87;;;15.00;99.90;;;;;;4977050;28;20434;-74
2021/07/10 05:04:23;;;;;;;23.23;19.97;;;15.10;99.90;;;;;;4977066;28;20438;-74
2021/07/10 05:06:51;;;;;;;23.27;18.47;;;15.10;99.90;;;;;;4977001;28;20901;-79
2021/07/10 05:09:21;;;;;;;24.60;17.47;;;15.10;99.90;;;;;;4991995;28;21067;-74
2021/07/10 05:11:49;;;;;;;21.50;18.30;;;15.20;99.90;;;;;;4994658;28;20543;-74
2021/07/10 05:14:17;;;;;;;20.97;18.70;;;15.30;99.90;;;;;;4994311;28;20555;-74
2021/07/10 05:16:47;;;;;;;21.07;17.83;;;15.30;99.90;;;;;;4994297;28;20476;-74
2021/07/10 05:19:15;;;;;;;20.10;16.73;;;15.30;99.90;;;;;;4976722;28;20849;-74
2021/07/10 05:21:43;;;;;;;23.20;17.70;;;15.40;99.90;;;;;;4976953;28;20504;-74
2021/07/10 05:24:11;;;;;;;19.33;17.30;;;15.40;99.90;;;;;;4976755;28;20453;-74
2021/07/10 05:26:41;;;;;;;18.87;16.90;;;15.50;99.90;;;;;;4976837;28;20418;-74
2021/07/10 05:29:09;;;;;;;19.33;17.23;;;15.60;99.90;;;;;;4976416;28;20544;-74
2021/07/10 05:31:37;;;;;;;20.83;18.17;;;15.60;99.90;;;;;;4976694;28;20952;-74
2021/07/10 05:34:05;;;;;;;20.60;18.37;;;15.70;99.90;;;;;;4973801;28;20457;-74
2021/07/10 05:36:33;;;;;;;19.47;17.00;;;15.80;99.90;;;;;;4993633;28;20551;-74
2021/07/10 05:39:01;;;;;;;19.47;16.97;;;15.90;99.90;;;;;;4993952;28;20461;-74
2021/07/10 05:41:29;;;;;;;20.07;16.40;;;15.90;99.90;;;;;;4977176;28;20558;-74
2021/07/10 05:43:59;;;;;;;18.60;16.70;;;16.00;99.90;;;;;;4976457;28;20434;-74
2021/07/10 05:46:27;;;;;;;18.70;15.93;;;16.20;99.90;;;;;;4977078;28;20458;-74
2021/07/10 05:48:56;;;;;;;18.33;15.73;;;16.30;99.90;;;;;;4995210;28;20458;-74
2021/07/10 05:51:24;;;;;;;16.30;14.50;;;16.50;99.90;;;;;;4993462;28;20225;-74
2021/07/10 05:53:52;;;;;;;15.70;14.10;;;16.70;99.90;;;;;;4977592;28;20967;-74
2021/07/10 05:56:21;;;;;;;18.23;15.10;;;16.90;99.90;;;;;;4994349;28;20527;-75
2021/07/10 05:58:49;;;;;;;17.53;15.83;;;17.10;99.90;;;;;;4976623;28;20995;-74
2021/07/10 06:01:19;;;;;;;15.80;14.20;;;17.40;99.90;;;;;;4977722;28;20467;-74
2021/07/10 06:03:48;;;;;;;15.90;14.30;;;17.60;99.90;;;;;;4993718;28;20446;-75
2021/07/10 06:06:16;;;;;;;14.57;13.07;;;17.90;99.90;;;;;;4977210;28;20905;-75
2021/07/10 06:08:45;;;;;;;15.20;13.60;;;18.10;99.90;;;;;;4993608;28;20436;-74
2021/07/10 06:11:13;;;;;;;14.93;13.43;;;18.40;99.90;;;;;;4973749;28;20482;-75
2021/07/10 06:13:42;;;;;;;15.00;13.50;;;18.60;99.90;;;;;;4977179;28;20470;-75
2021/07/10 06:16:10;;;;;;;14.10;12.80;;;18.90;99.90;;;;;;4994105;28;20796;-75
2021/07/10 06:18:40;;;;;;;10.50;9.47;;;19.10;99.90;;;;;;4993895;28;21005;-75
2021/07/10 06:21:08;;;;;;;13.03;11.70;;;19.40;99.90;;;;;;4979319;28;20567;-76
2021/07/10 06:23:36;;;;;;;11.27;10.07;;;19.60;99.90;;;;;;4979916;28;20454;-74
2021/07/10 06:26:04;;;;;;;11.10;9.50;;;19.70;99.90;;;;;;4997714;28;20443;-74
2021/07/10 06:28:32;;;;;;;11.33;10.23;;;19.90;99.90;;;;;;4997416;28;20444;-74
2021/07/10 06:31:00;;;;;;;11.40;10.20;;;20.10;99.90;;;;;;4994943;28;20484;-74
2021/07/10 06:33:28;;;;;;;13.00;10.27;;;20.30;99.90;;;;;;4980755;28;20456;-74
2021/07/10 06:35:58;;;;;;;10.77;9.70;;;20.50;99.90;;;;;;4980776;28;20495;-74
2021/07/10 06:38:26;;;;;;;9.80;9.00;;;20.60;99.90;;;;;;4980207;28;20469;-74
2021/07/10 06:40:54;;;;;;;9.83;8.83;;;20.80;99.90;;;;;;4998999;28;20467;-74
2021/07/10 06:43:22;;;;;;;9.13;8.23;;;21.00;99.90;;;;;;4997061;28;20531;-74
2021/07/10 06:45:51;;;;;;;9.47;8.50;;;21.10;99.90;;;;;;4998618;28;20536;-74
2021/07/10 06:48:19;;;;;;;9.23;8.43;;;21.30;99.90;;;;;;4979667;28;20453;-74
2021/07/10 06:50:47;;;;;;;8.37;7.57;;;21.50;99.90;;;;;;4997105;28;20562;-74
2021/07/10 06:53:22;;;;;;;8.73;7.93;;;21.70;99.90;;;;;;4980047;28;20934;-74
2021/07/10 06:55:50;;;;;;;8.67;7.50;;;21.90;99.90;;;;;;4980449;28;20276;-74
2021/07/10 06:58:19;;;;;;;7.40;6.70;;;22.00;99.90;;;;;;4995345;28;20460;-74
2021/07/10 07:00:49;;;;;;;7.75;7.05;;;22.10;99.90;;;;;;4996970;28;20433;-74
2021/07/10 07:03:17;;;;;;;8.03;7.30;;;22.20;99.90;;;;;;4979587;28;20218;-74
2021/07/10 07:05:45;;;;;;;8.80;8.00;;;22.40;99.90;;;;;;4997511;28;20528;-73
2021/07/10 07:08:13;;;;;;;7.57;6.77;;;22.50;99.90;;;;;;4997192;28;20437;-74
2021/07/10 07:10:43;;;;;;;9.63;8.73;;;22.60;99.90;;;;;;4996647;28;20519;-73
2021/07/10 07:13:11;;;;;;;9.83;8.93;;;22.80;99.90;;;;;;4979593;28;20445;-73
2021/07/10 07:15:39;;;;;;;8.67;7.73;;;22.70;99.90;;;;;;4995138;28;20478;-72
2021/07/10 07:18:08;;;;;;;9.07;8.03;;;22.80;99.90;;;;;;4979154;28;20808;-74
2021/07/10 07:20:36;;;;;;;9.17;8.27;;;22.80;99.90;;;;;;4979035;28;20469;-73
2021/07/10 07:23:05;;;;;;;8.83;7.93;;;22.90;99.90;;;;;;4996597;28;20437;-74
2021/07/10 07:25:35;;;;;;;8.70;7.93;;;23.00;99.90;;;;;;4981941;28;20457;-74
2021/07/10 07:28:05;;;;;;;8.90;8.00;;;23.00;99.90;;;;;;4980527;28;20461;-74
2021/07/10 07:30:34;;;;;;;7.90;7.20;;;22.90;99.90;;;;;;4980132;28;20846;-74
2021/07/10 07:33:02;;;;;;;9.80;8.90;;;22.90;99.90;;;;;;4996372;28;20617;-75
2021/07/10 07:35:30;;;;;;;10.67;9.57;;;22.80;99.90;;;;;;4979171;28;20803;-74
2021/07/10 07:37:59;;;;;;;9.67;8.73;;;22.70;99.90;;;;;;4979036;28;20544;-75
2021/07/10 07:40:27;;;;;;;10.13;9.13;;;22.60;99.90;;;;;;4978750;28;20498;-74
2021/07/10 07:42:56;;;;;;;11.70;9.80;;;22.50;99.90;;;;;;4996187;28;20437;-74
2021/07/10 07:45:26;;;;;;;13.37;11.97;;;22.30;99.90;;;;;;4978560;28;20930;-74
2021/07/10 07:47:54;;;;;;;10.87;9.77;;;22.20;99.90;;;;;;4996294;28;20445;-74
2021/07/10 07:50:23;;;;;;;9.63;8.83;;;22.10;99.90;;;;;;4979160;28;20484;-74
2021/07/10 07:52:52;;;;;;;10.60;9.50;;;22.00;99.90;;;;;;4979593;28;20460;-75
2021/07/10 07:55:25;;;;;;;22.50;15.90;;;21.90;99.90;;;;;;4977781;28;20953;-74
2021/07/10 07:57:53;;;;;;;12.90;10.10;;;22.00;99.90;;;;;;4996479;28;20178;-74
2021/07/10 08:00:23;;;;;;;11.30;10.20;;;21.90;99.90;;;;;;4978522;28;20474;-75
2021/07/10 08:02:56;;;;;;;10.10;9.10;;;21.90;99.90;;;;;;4995727;28;20441;-74
2021/07/10 08:08:33;;;;;;;11.40;10.40;;;21.70;99.90;;;;;;4995878;28;20468;-73
2021/07/10 08:11:05;;;;;;;10.80;9.70;;;21.70;99.90;;;;;;4998217;28;20469;-74
2021/07/10 08:13:34;;;;;;;11.60;10.40;;;21.70;99.90;;;;;;4997426;28;20455;-73
2021/07/10 08:16:03;;;;;;;11.90;10.80;;;21.70;99.90;;;;;;4997137;28;20943;-74
2021/07/10 08:18:33;;;;;;;11.00;10.00;;;21.70;99.90;;;;;;4978725;28;20457;-73
2021/07/10 08:21:01;;;;;;;11.43;10.27;;;21.80;99.90;;;;;;4993745;28;20473;-73
2021/07/10 08:23:29;;;;;;;11.57;10.57;;;21.80;99.90;;;;;;4996125;28;20444;-73
2021/07/10 08:25:58;;;;;;;10.07;9.07;;;21.80;99.90;;;;;;4978391;28;20485;-73
2021/07/10 08:28:26;;;;;;;11.93;10.83;;;21.80;99.90;;;;;;4995875;28;20473;-73
2021/07/10 08:30:55;;;;;;;11.87;10.67;;;21.80;99.90;;;;;;4995665;28;20830;-73
2021/07/10 08:33:23;;;;;;;11.13;10.10;;;21.70;99.90;;;;;;4979119;28;20471;-74
2021/07/10 08:35:53;;;;;;;10.77;9.77;;;21.60;99.90;;;;;;4979186;28;20453;-73
2021/07/10 08:38:22;;;;;;;12.17;11.07;;;21.60;99.90;;;;;;4995572;28;21029;-74
2021/07/10 08:40:51;;;;;;;10.63;9.63;;;21.50;99.90;;;;;;4995400;28;20449;-75
2021/07/10 08:43:22;;;;;;;11.10;9.57;;;21.50;99.90;;;;;;4977936;28;20468;-75
2021/07/10 08:45:51;;;;;;;10.50;9.50;;;21.50;99.90;;;;;;4978529;28;20485;-75
2021/07/10 08:48:19;;;;;;;11.57;10.47;;;21.50;99.90;;;;;;4995848;28;20448;-75
2021/07/10 08:50:49;;;;;;;11.33;10.20;;;21.60;99.90;;;;;;4977382;28;20508;-75
2021/07/10 08:53:18;;;;;;;12.30;11.00;;;21.60;99.90;;;;;;4960859;28;20549;-75
2021/07/10 08:55:50;;;;;;;12.23;10.97;;;21.70;99.90;;;;;;4961333;28;20549;-75
2021/07/10 08:58:18;;;;;;;10.87;9.77;;;21.70;99.90;;;;;;4979453;28;20458;-75
2021/07/10 09:00:47;;;;;;;11.95;10.85;;;21.80;99.90;;;;;;4959724;28;20483;-75
2021/07/10 09:03:16;;;;;;;11.87;9.73;;;21.80;99.90;;;;;;4964483;28;20332;-75
2021/07/10 09:05:45;;;;;;;9.10;8.20;;;21.80;99.90;;;;;;4975853;28;20452;-74
2021/07/10 09:08:17;;;;;;;10.90;9.20;;;21.80;99.90;;;;;;4985289;28;20467;-75
2021/07/10 09:10:49;;;;;;;10.67;9.67;;;21.80;99.90;;;;;;4977946;28;21020;-75
2021/07/10 09:13:18;;;;;;;9.30;8.50;;;21.80;99.90;;;;;;4977923;28;20453;-75
2021/07/10 09:15:47;;;;;;;9.90;8.90;;;21.70;99.90;;;;;;4977874;28;20449;-75
2021/07/10 09:18:16;;;;;;;11.60;10.60;;;21.80;99.90;;;;;;4978127;28;20453;-75
2021/07/10 09:26:26;;;;;;;10.50;9.40;;;22.10;99.90;;;;;;5018830;28;20487;-80
2021/07/10 09:29:10;;;;;;;10.17;8.90;;;22.10;99.90;;;;;;5021596;28;20495;-80
2021/07/10 09:31:41;;;;;;;9.00;8.10;;;22.10;99.90;;;;;;4996889;28;20505;-79
2021/07/10 09:34:12;;;;;;;10.23;9.23;;;22.20;99.90;;;;;;4982010;28;20439;-80
2021/07/10 09:36:53;;;;;;;9.70;8.70;;;22.30;99.90;;;;;;4981511;28;20453;-79
2021/07/10 09:39:22;;;;;;;9.60;8.70;;;22.40;99.90;;;;;;4980057;28;20438;-80
2021/07/10 09:41:53;;;;;;;10.47;9.50;;;22.40;99.90;;;;;;4982434;28;20450;-80
2021/07/10 09:44:21;;;;;;;10.57;9.57;;;22.40;99.90;;;;;;5005628;28;20480;-80
2021/07/10 09:46:49;;;;;;;11.57;10.38;;;22.40;99.90;;;;;;4999577;28;20548;-80
2021/07/10 09:49:21;;;;;;;11.60;10.00;;;22.50;99.70;;;;;;5003225;28;20274;-80
2021/07/10 09:51:56;;;;;;;11.30;9.93;;;22.50;99.70;;;;;;5003916;28;20484;-80
2021/07/10 09:54:29;;;;;;;10.98;9.88;;;22.40;99.80;;;;;;5000885;28;20456;-80
2021/07/10 09:57:08;;;;;;;12.73;11.57;;;22.40;99.70;;;;;;5000153;28;20209;-80
2021/07/10 09:59:41;;;;;;;10.73;9.67;;;22.40;99.80;;;;;;4999625;28;20830;-80
2021/07/10 10:02:24;;;;;;;11.47;10.37;;;22.50;99.90;;;;;;4996777;28;20450;-80
2021/07/10 10:04:53;;;;;;;10.93;9.83;;;22.60;99.90;;;;;;4983376;28;20442;-80
2021/07/10 10:07:22;;;;;;;11.17;10.07;;;22.70;99.90;;;;;;4984198;28;20434;-80
2021/07/10 10:09:56;;;;;;;11.83;10.73;;;22.80;99.90;;;;;;4983544;28;20492;-80
2021/07/10 10:12:26;;;;;;;12.27;11.03;;;22.80;99.70;;;;;;4982469;28;20562;-80
2021/07/10 10:14:57;;;;;;;13.53;12.17;;;22.80;99.60;;;;;;4985179;28;20452;-80
2021/07/10 10:17:27;;;;;;;12.57;11.27;;;22.70;99.60;;;;;;4998751;28;20857;-80
2021/07/10 10:19:56;;;;;;;12.00;10.73;;;22.70;99.60;;;;;;4998247;28;21016;-80
2021/07/10 10:22:25;;;;;;;11.77;10.63;;;22.70;99.50;;;;;;4998717;28;20457;-80
2021/07/10 10:24:54;;;;;;;11.33;10.20;;;22.70;99.60;;;;;;4998682;28;20467;-80
2021/07/10 10:27:24;;;;;;;17.97;13.63;;;22.70;99.60;;;;;;4993524;28;20481;-79
2021/07/10 10:29:55;;;;;;;12.33;11.13;;;22.80;99.50;;;;;;4998879;28;20454;-80
2021/07/10 10:32:24;;;;;;;13.30;12.10;;;22.80;99.50;;;;;;4997799;28;20523;-80
2021/07/10 10:34:55;;;;;;;12.43;11.20;;;22.80;99.50;;;;;;4996967;28;20456;-80
2021/07/10 10:37:23;;;;;;;11.47;10.37;;;22.90;99.50;;;;;;4999331;28;20468;-80
2021/07/10 10:39:52;;;;;;;12.43;11.13;;;23.00;99.50;;;;;;4998987;28;20456;-80
2021/07/10 10:42:22;;;;;;;12.90;11.60;;;23.00;99.40;;;;;;4997045;28;20448;-80
2021/07/10 10:44:59;;;;;;;12.47;11.27;;;23.10;98.90;;;;;;4999021;28;20461;-80
2021/07/10 10:47:38;;;;;;;17.03;12.83;;;23.00;99.20;;;;;;4997398;28;20539;-79
2021/07/10 10:50:17;;;;;;;12.98;11.88;;;23.00;98.90;;;;;;4996219;28;20938;-80
2021/07/10 10:52:49;;;;;;;15.10;13.53;;;23.00;98.90;;;;;;4999072;28;20248;-80
2021/07/10 10:55:18;;;;;;;12.97;11.73;;;23.00;98.90;;;;;;4998493;28;20425;-80
2021/07/10 10:57:51;;;;;;;12.73;11.60;;;23.00;98.90;;;;;;4997442;28;20975;-80
2021/07/10 11:00:32;;;;;;;12.87;11.63;;;23.00;99.00;;;;;;4997374;28;20898;-80
2021/07/10 11:03:10;;;;;;;14.07;11.87;;;23.10;99.00;;;;;;4997098;28;20453;-80
2021/07/10 11:05:44;;;;;;;14.47;12.97;;;23.10;99.00;;;;;;4999380;28;20488;-80
2021/07/10 11:08:35;;;;;;;13.43;11.90;;;23.10;98.90;;;;;;5001524;28;20437;-80
2021/07/10 11:11:44;;;;;;;12.80;11.23;;;23.10;98.90;;;;;;5001325;28;20559;-80
2021/07/10 11:14:15;;;;;;;12.83;11.53;;;23.30;99.10;;;;;;4999541;28;20453;-80
2021/07/10 11:17:11;;;;;;;13.50;12.10;;;23.40;99.10;;;;;;5002085;28;20444;-80
2021/07/10 11:20:05;;;;;;;13.77;12.37;;;23.40;98.90;;;;;;5003464;28;20807;-80
2021/07/10 11:22:56;;;;;;;13.20;11.97;;;23.40;98.90;;;;;;5005578;28;20422;-80
2021/07/10 11:26:01;;;;;;;12.50;11.33;;;23.40;98.80;;;;;;5003281;28;20525;-80
2021/07/10 11:28:35;;;;;;;15.30;13.90;;;23.40;98.80;;;;;;5006071;28;20443;-79
2021/07/10 11:31:08;;;;;;;14.30;12.90;;;23.50;98.80;;;;;;5004103;28;20536;-80
2021/07/10 11:34:12;;;;;;;13.00;11.73;;;23.60;98.70;;;;;;5004012;28;20218;-80
2021/07/10 11:36:55;;;;;;;12.67;10.97;;;23.70;98.80;;;;;;4908355;29;20589;-80
2021/07/10 11:39:41;;;;;;;13.60;12.30;;;23.70;98.90;;;;;;4886976;29;20464;-77
2021/07/10 11:42:33;;;;;;;13.40;12.20;;;23.70;98.40;;;;;;4958633;28;20238;-76
2021/07/10 11:45:20;;;;;;;14.83;13.23;;;23.70;98.50;;;;;;4996244;28;20468;-79
2021/07/10 11:47:51;;;;;;;16.47;14.63;;;23.80;98.50;;;;;;4999971;28;20491;-78
2021/07/10 11:50:23;;;;;;;12.70;11.33;;;23.80;98.50;;;;;;4997044;28;20484;-76
2021/07/10 11:53:00;;;;;;;11.63;10.53;;;23.80;98.50;;;;;;4995476;28;20987;-76
2021/07/10 11:55:32;;;;;;;12.20;11.00;;;23.90;98.50;;;;;;4994102;28;20437;-76
2021/07/10 11:58:06;;;;;;;13.43;11.97;;;24.00;98.60;;;;;;4995392;28;20457;-77
2021/07/10 12:00:34;;;;;;;12.40;11.10;;;24.00;98.50;;;;;;5004469;28;20536;-79
2021/07/10 12:03:03;;;;;;;12.00;10.83;;;24.10;98.50;;;;;;5002260;28;20453;-80
2021/07/10 12:05:37;;;;;;;13.50;12.10;;;24.20;98.50;;;;;;5003120;28;20584;-79
2021/07/10 12:08:07;;;;;;;12.37;11.27;;;24.30;98.50;;;;;;5002661;28;20465;-79
2021/07/10 12:10:38;;;;;;;12.30;11.20;;;24.40;98.50;;;;;;5003389;28;20453;-79
2021/07/10 12:13:09;;;;;;;12.40;11.20;;;24.50;98.50;;;;;;5003583;28;20855;-79
2021/07/10 12:15:39;;;;;;;11.17;10.07;;;24.50;98.30;;;;;;5001400;28;20513;-79
2021/07/10 12:18:11;;;;;;;12.30;11.10;;;24.50;98.20;;;;;;4997749;28;20465;-79
2021/07/10 12:20:43;;;;;;;12.68;11.48;;;24.40;98.00;;;;;;5001737;28;20485;-79
2021/07/10 12:23:13;;;;;;;12.17;10.83;;;24.40;97.60;;;;;;5001334;28;20198;-79
2021/07/10 12:25:48;;;;;;;11.67;10.57;;;24.40;97.90;;;;;;5001435;28;20830;-79
2021/07/10 12:28:17;;;;;;;13.53;11.80;;;24.30;97.80;;;;;;5006643;28;20422;-79
2021/07/10 12:30:50;;;;;;;10.60;9.60;;;24.30;97.80;;;;;;5002081;28;20870;-79
2021/07/10 12:33:40;;;;;;;11.40;10.30;;;24.30;97.40;;;;;;5003229;28;20609;-79
2021/07/10 12:36:22;;;;;;;10.40;9.50;;;24.30;97.60;;;;;;5001779;28;20516;-80
2021/07/10 12:38:57;;;;;;;12.30;11.00;;;24.30;97.50;;;;;;5002938;28;20496;-79
2021/07/10 12:41:44;;;;;;;12.37;11.17;;;24.20;97.50;;;;;;5001293;28;20457;-79
2021/07/10 12:44:27;;;;;;;11.73;10.57;;;24.20;97.60;;;;;;5001613;28;20426;-79
2021/07/10 12:47:03;;;;;;;11.37;10.27;;;24.20;97.60;;;;;;5000910;28;20496;-80
2021/07/10 12:49:38;;;;;;;12.27;11.17;;;24.20;97.50;;;;;;5001342;28;20492;-79
2021/07/10 12:52:17;;;;;;;12.07;10.87;;;24.20;97.50;;;;;;5000107;28;20445;-80
2021/07/10 12:54:50;;;;;;;11.13;10.00;;;24.30;97.50;;;;;;4999249;28;20465;-79
2021/07/10 12:57:22;;;;;;;10.47;9.57;;;24.30;97.50;;;;;;4999243;28;20652;-79
2021/07/10 12:59:54;;;;;;;10.90;9.90;;;24.40;97.50;;;;;;4999934;28;20496;-79
2021/07/10 13:02:31;;;;;;;10.83;9.83;;;24.40;97.40;;;;;;5000430;28;20425;-79
2021/07/10 13:05:03;;;;;;;11.38;10.18;;;24.50;97.20;;;;;;5000294;28;20522;-79
2021/07/10 13:07:35;;;;;;;10.30;9.40;;;24.50;97.00;;;;;;5000508;28;20257;-79
2021/07/10 13:10:04;;;;;;;12.13;10.93;;;24.60;96.90;;;;;;4999024;28;20473;-79
2021/07/10 13:12:45;;;;;;;11.63;10.60;;;24.70;96.90;;;;;;4998727;28;20453;-79
2021/07/10 13:15:18;;;;;;;11.40;10.40;;;24.70;96.70;;;;;;5000224;28;20440;-79
2021/07/10 13:18:09;;;;;;;12.20;11.00;;;24.90;96.30;;;;;;5000540;28;20194;-79
2021/07/10 13:20:40;;;;;;;12.33;11.07;;;24.90;96.40;;;;;;4998638;28;20497;-79
2021/07/10 13:23:10;;;;;;;10.40;9.40;;;24.80;96.60;;;;;;4998110;28;20449;-79
2021/07/10 13:25:42;;;;;;;8.40;7.60;;;24.70;96.70;;;;;;4999379;28;21040;-79
2021/07/10 13:28:27;;;;;;;10.20;9.30;;;24.70;96.70;;;;;;4991866;28;20450;-79
2021/07/10 13:31:08;;;;;;;12.07;10.87;;;24.60;96.50;;;;;;4979296;28;20474;-79
2021/07/10 13:33:37;;;;;;;11.17;10.17;;;24.50;96.50;;;;;;4987070;28;20469;-79
2021/07/10 13:36:08;;;;;;;11.67;10.67;;;24.50;96.50;;;;;;5000641;28;20500;-78
2021/07/10 13:38:39;;;;;;;10.40;9.30;;;24.40;96.30;;;;;;5000025;28;20479;-79
2021/07/10 13:41:17;;;;;;;9.10;8.30;;;24.30;96.40;;;;;;4997630;28;20465;-79
2021/07/10 13:44:17;;;;;;;12.63;10.63;;;24.20;96.40;;;;;;4997832;28;20946;-79
2021/07/10 13:46:51;;;;;;;9.80;9.00;;;24.10;96.40;;;;;;4946667;28;20453;-79
2021/07/10 13:49:36;;;;;;;10.47;8.80;;;24.10;96.50;;;;;;5000215;28;20436;-79
2021/07/10 13:52:18;;;;;;;12.00;10.20;;;24.20;96.90;;;;;;4998094;28;20460;-78
2021/07/10 13:54:50;;;;;;;10.43;9.43;;;24.20;96.60;;;;;;4999408;28;20882;-78
2021/07/10 13:57:27;;;;;;;11.23;10.23;;;24.20;96.50;;;;;;4998116;28;20459;-78
2021/07/10 14:00:14;;;;;;;10.57;9.53;;;24.30;96.30;;;;;;4998322;28;20733;-78
2021/07/10 14:02:45;;;;;;;11.07;10.07;;;24.30;96.30;;;;;;4998874;28;20445;-80
2021/07/10 14:05:20;;;;;;;10.63;9.63;;;24.40;96.30;;;;;;4998097;28;20441;-78
2021/07/10 14:07:51;;;;;;;10.67;9.60;;;24.40;96.30;;;;;;4999569;28;20434;-78
2021/07/10 14:10:23;;;;;;;12.10;10.93;;;24.40;96.30;;;;;;4996748;28;20483;-78